createdAt,value
2019-03-13T00:00:37.501Z,1.43
2019-03-13T00:03:08.286Z,1.50
2019-03-13T00:05:38.772Z,1.10
2019-03-13T00:08:09.149Z,1.40
2019-03-13T00:10:39.624Z,1.00
2019-03-13T00:13:10.385Z,1.57
2019-03-13T00:15:40.865Z,1.30
2019-03-13T00:18:11.448Z,1.10
2019-03-13T00:20:41.882Z,1.20
2019-03-13T00:23:12.344Z,1.50
2019-03-13T00:25:42.746Z,1.33
2019-03-13T00:28:13.170Z,1.13
2019-03-13T00:30:43.996Z,1.33
2019-03-13T00:33:14.477Z,1.30
2019-03-13T00:35:44.956Z,1.23
2019-03-13T00:38:15.430Z,1.20
2019-03-13T00:40:46.160Z,1.40
2019-03-13T00:43:16.628Z,1.20
2019-03-13T00:45:47.077Z,1.57
2019-03-13T00:48:17.512Z,1.70
2019-03-13T00:50:48.219Z,1.23
2019-03-13T00:53:18.664Z,1.30
2019-03-13T00:55:49.159Z,1.47
2019-03-13T00:58:19.544Z,1.10
2019-03-13T01:01:27.540Z,1.37
2019-03-13T01:04:17.196Z,1.70
2019-03-13T01:06:51.242Z,1.67
2019-03-13T01:09:21.994Z,1.80
2019-03-13T01:11:52.593Z,1.77
2019-03-13T01:14:22.956Z,1.60
2019-03-13T01:16:53.426Z,1.10
2019-03-13T01:19:23.947Z,1.37
2019-03-13T01:21:54.578Z,1.40
2019-03-13T01:24:25.266Z,1.67
2019-03-13T01:26:55.946Z,1.37
2019-03-13T01:29:26.890Z,1.10
2019-03-13T01:32:19.279Z,1.63
2019-03-13T01:35:11.709Z,1.20
2019-03-13T01:37:42.720Z,1.33
2019-03-13T01:40:13.513Z,0.73
2019-03-13T01:42:44.484Z,0.50
2019-03-13T01:45:16.682Z,0.77
2019-03-13T01:47:47.180Z,0.50
2019-03-13T01:50:17.622Z,0.60
2019-03-13T01:52:48.556Z,0.50
2019-03-13T01:55:18.968Z,0.43
2019-03-13T01:57:49.416Z,0.57
2019-03-13T02:00:20.033Z,0.70
2019-03-13T02:02:51.132Z,0.80
2019-03-13T02:05:22.025Z,0.50
2019-03-13T02:07:52.395Z,0.67
2019-03-13T02:10:22.932Z,0.60
2019-03-13T02:12:53.385Z,1.17
2019-03-13T02:15:23.884Z,0.80
2019-03-13T02:17:54.458Z,1.03
2019-03-13T02:20:25.259Z,1.30
2019-03-13T02:22:55.799Z,1.50
2019-03-13T02:25:26.317Z,1.10
2019-03-13T02:27:56.804Z,1.50
2019-03-13T02:30:28.810Z,1.60
2019-03-13T02:32:59.204Z,1.20
2019-03-13T02:35:29.659Z,1.20
2019-03-13T02:38:00.156Z,1.60
2019-03-13T02:40:30.722Z,1.40
2019-03-13T02:43:01.584Z,1.43
2019-03-13T02:45:32.174Z,1.23
2019-03-13T02:48:03.061Z,1.30
2019-03-13T02:50:33.614Z,1.10
2019-03-13T02:53:04.556Z,1.13
2019-03-13T02:55:35.222Z,1.20
2019-03-13T02:58:06.021Z,0.93
2019-03-13T03:01:01.914Z,1.33
2019-03-13T03:03:38.333Z,1.03
2019-03-13T03:06:08.712Z,1.30
2019-03-13T03:08:39.143Z,1.20
2019-03-13T03:11:10.152Z,1.40
2019-03-13T03:13:40.599Z,1.83
2019-03-13T03:16:11.176Z,1.30
2019-03-13T03:18:41.633Z,1.20
2019-03-13T03:21:12.043Z,1.03
2019-03-13T03:23:45.216Z,1.17
2019-03-13T03:26:14.617Z,1.10
2019-03-13T03:28:45.075Z,1.93
2019-03-13T03:31:15.897Z,1.73
2019-03-13T03:34:05.765Z,1.53
2019-03-13T03:36:36.232Z,1.27
2019-03-13T03:39:08.007Z,1.83
2019-03-13T03:41:39.142Z,1.90
2019-03-13T03:44:10.573Z,1.90
2019-03-13T03:46:41.040Z,1.90
2019-03-13T03:49:11.521Z,1.67
2019-03-13T03:51:41.919Z,2.23
2019-03-13T03:54:12.342Z,1.73
2019-03-13T03:56:42.790Z,1.77
2019-03-13T03:59:13.508Z,1.50
2019-03-13T04:01:44.306Z,1.63
2019-03-13T04:04:14.725Z,1.93
2019-03-13T04:06:45.178Z,1.40
2019-03-13T04:09:15.661Z,1.60
2019-03-13T04:11:46.478Z,1.50
2019-03-13T04:14:16.910Z,1.43
2019-03-13T04:16:47.459Z,1.50
2019-03-13T04:19:17.828Z,1.33
2019-03-13T04:21:48.206Z,1.80
2019-03-13T04:24:18.617Z,1.93
2019-03-13T04:26:49.276Z,2.97
2019-03-13T04:29:19.731Z,1.50
2019-03-13T04:31:50.230Z,1.93
2019-03-13T04:34:20.621Z,2.10
2019-03-13T04:36:51.020Z,2.30
2019-03-13T04:39:21.694Z,2.30
2019-03-13T04:41:52.095Z,2.93
2019-03-13T04:44:22.504Z,2.40
2019-03-13T04:46:53.116Z,2.60
2019-03-13T04:49:23.766Z,3.00
2019-03-13T04:51:54.265Z,2.40
2019-03-13T04:54:24.672Z,3.63
2019-03-13T04:56:55.097Z,3.40
2019-03-13T04:59:25.474Z,2.80
2019-03-13T05:01:55.886Z,3.30
2019-03-13T05:04:26.361Z,3.80
2019-03-13T05:06:56.864Z,3.27
2019-03-13T05:09:39.441Z,3.90
2019-03-13T05:12:09.924Z,3.17
2019-03-13T05:14:40.325Z,2.80
2019-03-13T05:17:10.879Z,2.97
2019-03-13T05:19:41.334Z,3.47
2019-03-13T05:22:11.797Z,2.90
2019-03-13T05:24:42.230Z,2.70
2019-03-13T05:27:12.687Z,2.70
2019-03-13T05:29:43.159Z,2.50
2019-03-13T05:32:14.035Z,2.50
2019-03-13T05:34:44.444Z,2.57
2019-03-13T05:37:14.990Z,2.30
2019-03-13T05:39:45.488Z,2.50
2019-03-13T05:42:16.375Z,3.07
2019-03-13T05:44:47.063Z,2.33
2019-03-13T05:47:17.495Z,3.07
2019-03-13T05:49:48.240Z,2.93
2019-03-13T05:52:18.614Z,3.70
2019-03-13T05:54:49.378Z,2.83
2019-03-13T05:57:19.825Z,3.20
2019-03-13T05:59:50.238Z,3.30
2019-03-13T06:02:21.020Z,3.27
2019-03-13T06:04:51.541Z,2.73
2019-03-13T06:07:22.001Z,3.10
2019-03-13T06:09:52.422Z,3.00
2019-03-13T06:12:23.575Z,3.43
2019-03-13T06:14:54.247Z,3.07
2019-03-13T06:17:25.310Z,2.30
2019-03-13T06:19:56.098Z,3.00
2019-03-13T06:22:26.876Z,2.60
2019-03-13T06:24:57.373Z,2.40
2019-03-13T06:27:27.908Z,3.00
2019-03-13T06:29:58.537Z,2.47
2019-03-13T06:32:28.982Z,2.37
2019-03-13T06:34:59.730Z,2.83
2019-03-13T06:37:30.228Z,2.60
2019-03-13T06:40:00.761Z,3.60
2019-03-13T06:42:31.183Z,2.30
2019-03-13T06:45:01.580Z,1.80
2019-03-13T06:47:32.090Z,1.80
2019-03-13T06:50:02.671Z,1.83
2019-03-13T06:52:33.213Z,2.10
2019-03-13T06:55:03.832Z,1.80
2019-03-13T06:57:34.979Z,2.87
2019-03-13T07:00:24.367Z,1.70
2019-03-13T07:03:06.636Z,1.70
2019-03-13T07:06:11.153Z,1.87
2019-03-13T07:08:58.824Z,1.60
2019-03-13T07:11:39.733Z,1.50
2019-03-13T07:14:35.425Z,1.60
2019-03-13T07:17:30.771Z,1.50
2019-03-13T07:20:32.377Z,1.13
2019-03-13T07:23:28.449Z,1.77
2019-03-13T07:26:05.942Z,2.17
2019-03-13T07:28:44.560Z,1.60
2019-03-13T07:31:33.204Z,1.67
2019-03-13T07:34:10.904Z,1.10
2019-03-13T07:37:00.239Z,1.30
2019-03-13T07:39:46.488Z,1.33
2019-03-13T07:42:38.894Z,1.57
2019-03-13T07:45:20.677Z,1.40
2019-03-13T07:48:03.805Z,2.03
2019-03-13T07:50:45.903Z,2.00
2019-03-13T07:53:50.750Z,1.70
2019-03-13T07:56:42.726Z,2.43
2019-03-13T07:59:23.233Z,1.43
2019-03-13T08:02:05.219Z,1.60
2019-03-13T08:04:55.423Z,1.30
2019-03-13T08:07:42.382Z,1.93
2019-03-13T08:10:31.942Z,1.33
2019-03-13T08:13:20.458Z,2.00
2019-03-13T08:15:58.518Z,1.40
2019-03-13T08:18:52.753Z,1.77
2019-03-13T08:21:40.980Z,2.10
2019-03-13T08:24:18.390Z,1.03
2019-03-13T08:27:04.380Z,2.03
2019-03-13T08:29:59.606Z,2.43
2019-03-13T08:32:48.294Z,1.70
2019-03-13T08:35:40.985Z,1.57
2019-03-13T08:38:19.509Z,2.00
2019-03-13T08:41:07.107Z,1.50
2019-03-13T08:43:59.536Z,1.63
2019-03-13T08:46:38.288Z,2.03
2019-03-13T08:49:20.067Z,1.40
2019-03-13T08:51:57.179Z,2.13
2019-03-13T08:54:46.013Z,1.60
2019-03-13T08:57:25.317Z,1.40
2019-03-13T09:00:12.858Z,1.70
2019-03-13T09:03:01.109Z,1.57
2019-03-13T09:05:52.741Z,1.70
2019-03-13T09:08:39.681Z,2.00
2019-03-13T09:11:28.522Z,2.00
2019-03-13T09:14:17.376Z,2.03
2019-03-13T09:17:05.158Z,2.30
2019-03-13T09:20:00.277Z,1.83
2019-03-13T09:22:47.848Z,1.90
2019-03-13T09:25:36.471Z,1.60
2019-03-13T09:28:27.860Z,1.87
2019-03-13T09:31:08.861Z,2.20
2019-03-13T09:34:06.488Z,1.60
2019-03-13T09:36:53.903Z,1.73
2019-03-13T09:39:31.805Z,1.40
2019-03-13T09:42:32.934Z,1.60
2019-03-13T09:45:14.502Z,2.27
2019-03-13T09:48:09.385Z,2.47
2019-03-13T09:51:07.516Z,1.70
2019-03-13T09:53:46.429Z,3.50
2019-03-13T09:56:32.928Z,1.70
2019-03-13T09:59:43.311Z,1.93
2019-03-13T10:02:37.097Z,1.90
2019-03-13T10:05:15.815Z,1.53
2019-03-13T10:07:51.479Z,1.70
2019-03-13T10:10:26.764Z,1.80
2019-03-13T10:13:03.825Z,1.67
2019-03-13T10:15:54.267Z,2.00
2019-03-13T10:18:33.972Z,1.53
2019-03-13T10:21:10.231Z,1.60
2019-03-13T10:23:53.971Z,1.33
2019-03-13T10:26:34.966Z,1.30
2019-03-13T10:29:10.210Z,1.67
2019-03-13T10:31:55.380Z,1.33
2019-03-13T10:34:42.855Z,1.17
2019-03-13T10:37:23.796Z,1.80
2019-03-13T10:40:03.748Z,2.00
2019-03-13T10:42:40.839Z,1.50
2019-03-13T10:45:26.281Z,1.90
2019-03-13T10:48:17.419Z,2.63
2019-03-13T10:51:08.724Z,1.70
2019-03-13T10:53:45.583Z,1.97
2019-03-13T10:56:40.916Z,1.60
2019-03-13T10:59:20.979Z,2.17
2019-03-13T11:02:12.636Z,2.00
2019-03-13T11:05:00.571Z,2.17
2019-03-13T11:07:53.254Z,1.77
2019-03-13T11:10:47.206Z,1.10
2019-03-13T11:13:34.879Z,1.47
2019-03-13T11:16:22.485Z,1.80
2019-03-13T11:19:06.464Z,1.50
2019-03-13T11:22:00.864Z,1.60
2019-03-13T11:24:35.678Z,2.20
2019-03-13T11:27:33.731Z,2.07
2019-03-13T11:30:10.013Z,2.10
2019-03-13T11:33:01.913Z,1.77
2019-03-13T11:35:41.280Z,1.77
2019-03-13T11:38:25.137Z,1.40
2019-03-13T11:41:08.824Z,1.60
2019-03-13T11:43:47.585Z,1.40
2019-03-13T11:46:23.673Z,1.67
2019-03-13T11:49:21.763Z,1.40
2019-03-13T11:52:08.843Z,1.67
2019-03-13T11:54:54.533Z,1.30
2019-03-13T11:57:40.187Z,2.57
2019-03-13T12:00:28.049Z,1.60
2019-03-13T12:03:03.972Z,1.60
2019-03-13T12:05:46.901Z,1.13
2019-03-13T12:08:24.176Z,1.73
2019-03-13T12:11:05.265Z,1.37
2019-03-13T12:13:57.121Z,1.40
2019-03-13T12:16:44.136Z,1.87
2019-03-13T12:19:22.598Z,1.40
2019-03-13T12:22:06.558Z,1.30
2019-03-13T12:24:58.607Z,1.13
2019-03-13T12:27:43.600Z,2.63
2019-03-13T12:30:35.857Z,1.50
2019-03-13T12:33:23.935Z,1.40
2019-03-13T12:36:18.696Z,2.37
2019-03-13T12:38:54.734Z,1.27
2019-03-13T12:41:42.184Z,1.30
2019-03-13T12:44:36.046Z,1.10
2019-03-13T12:47:19.469Z,1.50
2019-03-13T12:50:05.655Z,1.60
2019-03-13T12:52:53.440Z,1.43
2019-03-13T12:55:34.436Z,1.20
2019-03-13T12:58:20.059Z,1.30
2019-03-13T13:01:04.631Z,1.37
2019-03-13T13:03:40.900Z,1.67
2019-03-13T13:06:36.428Z,1.30
2019-03-13T13:09:29.188Z,1.20
2019-03-13T13:12:22.476Z,1.20
2019-03-13T13:15:17.659Z,1.20
2019-03-13T13:17:58.561Z,1.40
2019-03-13T13:20:28.485Z,1.23
2019-03-13T13:22:58.363Z,1.00
2019-03-13T13:25:28.361Z,1.23
2019-03-13T13:27:58.624Z,1.30
2019-03-13T13:30:28.561Z,1.97
2019-03-13T13:32:58.483Z,1.70
2019-03-13T13:35:28.378Z,1.60
2019-03-13T13:37:58.502Z,1.40
2019-03-13T13:40:28.360Z,1.10
2019-03-13T13:42:58.286Z,1.87
2019-03-13T13:45:47.996Z,1.63
2019-03-13T13:48:18.306Z,1.20
2019-03-13T13:50:48.440Z,1.50
2019-03-13T13:53:18.313Z,1.20
2019-03-13T13:55:48.563Z,1.43
2019-03-13T13:58:18.406Z,1.47
2019-03-13T14:00:48.403Z,1.37
2019-03-13T14:03:18.284Z,1.07
2019-03-13T14:05:48.163Z,1.83
2019-03-13T14:08:18.323Z,1.23
2019-03-13T14:10:48.299Z,1.77
2019-03-13T14:13:18.167Z,1.37
2019-03-13T14:15:48.121Z,1.30
2019-03-13T14:18:18.006Z,1.60
2019-03-13T14:20:47.882Z,1.50
2019-03-13T14:23:18.133Z,1.30
2019-03-13T14:25:48.023Z,1.53
2019-03-13T14:28:17.902Z,1.43
2019-03-13T14:30:47.758Z,1.80
2019-03-13T14:33:17.621Z,1.37
2019-03-13T14:35:47.488Z,1.73
2019-03-13T14:38:17.429Z,0.90
2019-03-13T14:40:47.385Z,1.60
2019-03-13T14:43:17.346Z,1.20
2019-03-13T14:45:47.843Z,1.27
2019-03-13T14:48:17.760Z,1.57
2019-03-13T14:50:47.990Z,1.43
2019-03-13T14:53:17.914Z,1.10
2019-03-13T14:55:47.774Z,0.90
2019-03-13T14:58:17.655Z,1.27
2019-03-13T15:00:47.537Z,0.90
2019-03-13T15:03:17.648Z,0.67
2019-03-13T15:05:47.584Z,0.90
2019-03-13T15:08:17.450Z,1.03
2019-03-13T15:10:47.351Z,0.90
2019-03-13T15:13:17.266Z,1.90
2019-03-13T15:15:47.123Z,0.80
2019-03-13T15:18:16.992Z,1.20
2019-03-13T15:20:46.880Z,1.10
2019-03-13T15:23:17.110Z,0.60
2019-03-13T15:25:46.999Z,1.07
2019-03-13T15:28:17.581Z,1.10
2019-03-13T15:30:47.590Z,0.80
2019-03-13T15:33:17.452Z,0.90
2019-03-13T15:35:47.331Z,1.10
2019-03-13T15:38:17.739Z,1.00
2019-03-13T15:40:47.600Z,0.90
2019-03-13T15:43:17.817Z,0.90
2019-03-13T15:45:47.739Z,0.93
2019-03-13T15:48:17.713Z,0.93
2019-03-13T15:50:47.587Z,0.83
2019-03-13T15:53:17.544Z,0.73
2019-03-13T15:55:47.438Z,0.80
2019-03-13T15:58:17.490Z,1.17
2019-03-13T16:00:47.336Z,0.70
2019-03-13T16:03:17.306Z,0.97
2019-03-13T16:05:47.176Z,1.53
2019-03-13T16:08:17.428Z,0.93
2019-03-13T16:10:47.746Z,1.20
2019-03-13T16:13:17.983Z,1.03
2019-03-13T16:15:47.949Z,1.07
2019-03-13T16:18:18.099Z,1.10
2019-03-13T16:20:48.233Z,0.83
2019-03-13T16:23:18.239Z,1.03
2019-03-13T16:25:48.691Z,0.80
2019-03-13T16:28:18.519Z,1.10
2019-03-13T16:30:49.881Z,0.97
2019-03-13T16:33:20.309Z,1.07
2019-03-13T16:35:50.253Z,0.97
2019-03-13T16:38:20.481Z,1.27
2019-03-13T16:40:51.674Z,0.83
2019-03-13T16:43:21.503Z,0.67
2019-03-13T16:45:51.575Z,1.00
2019-03-13T16:48:21.823Z,0.77
2019-03-13T16:50:51.835Z,0.53
2019-03-13T16:53:21.778Z,0.80
2019-03-13T16:55:52.098Z,0.87
2019-03-13T16:58:22.475Z,0.70
2019-03-13T17:00:52.578Z,0.67
2019-03-13T17:03:22.524Z,0.70
2019-03-13T17:05:52.883Z,0.63
2019-03-13T17:08:22.925Z,1.10
2019-03-13T17:10:53.382Z,0.70
2019-03-13T17:13:24.104Z,1.17
2019-03-13T17:15:54.561Z,0.90
2019-03-13T17:18:24.436Z,0.90
2019-03-13T17:20:54.629Z,1.50
2019-03-13T17:23:24.543Z,0.83
2019-03-13T17:25:54.428Z,1.23
2019-03-13T17:28:24.324Z,1.33
2019-03-13T17:30:54.481Z,0.83
2019-03-13T17:33:24.342Z,0.97
2019-03-13T17:35:54.333Z,0.87
2019-03-13T17:38:24.181Z,0.87
2019-03-13T17:40:54.080Z,0.70
2019-03-13T17:43:24.254Z,0.90
2019-03-13T17:45:54.266Z,0.87
2019-03-13T17:48:24.278Z,1.23
2019-03-13T17:50:54.623Z,1.03
2019-03-13T17:53:24.599Z,0.80
2019-03-13T17:55:54.818Z,1.20
2019-03-13T17:58:24.733Z,0.53
2019-03-13T18:00:55.016Z,0.70
2019-03-13T18:03:25.431Z,0.83
2019-03-13T18:05:55.400Z,1.27
2019-03-13T18:08:25.667Z,1.17
2019-03-13T18:10:55.575Z,1.23
2019-03-13T18:13:25.749Z,1.40
2019-03-13T18:15:55.852Z,1.50
2019-03-13T18:18:25.698Z,1.20
2019-03-13T18:20:56.458Z,0.90
2019-03-13T18:23:26.294Z,1.10
2019-03-13T18:25:56.578Z,0.90
2019-03-13T18:28:26.747Z,1.00
2019-03-13T18:30:57.412Z,1.10
2019-03-13T18:33:27.624Z,1.00
2019-03-13T18:35:57.912Z,0.70
2019-03-13T18:38:28.079Z,1.30
2019-03-13T18:40:58.156Z,1.17
2019-03-13T18:43:28.481Z,0.90
2019-03-13T18:45:59.275Z,0.70
2019-03-13T18:48:29.866Z,0.70
2019-03-13T18:51:00.098Z,1.20
2019-03-13T18:53:30.069Z,0.70
2019-03-13T18:56:02.101Z,0.73
2019-03-13T18:58:34.698Z,0.87
2019-03-13T19:01:03.543Z,0.83
2019-03-13T19:03:33.678Z,0.70
2019-03-13T19:06:03.558Z,0.70
2019-03-13T19:08:33.707Z,0.60
2019-03-13T19:11:03.691Z,0.70
2019-03-13T19:13:33.530Z,0.60
2019-03-13T19:16:03.389Z,0.70
2019-03-13T19:18:33.288Z,0.70
2019-03-13T19:21:03.220Z,0.63
2019-03-13T19:23:33.337Z,0.80
2019-03-13T19:26:03.174Z,0.70
2019-03-13T19:28:33.042Z,0.70
2019-03-13T19:31:03.224Z,0.80
2019-03-13T19:33:33.357Z,0.70
2019-03-13T19:36:03.290Z,0.83
2019-03-13T19:38:34.336Z,1.00
2019-03-13T19:41:04.264Z,1.10
2019-03-13T19:43:34.159Z,1.13
2019-03-13T19:46:04.199Z,0.90
2019-03-13T19:48:34.155Z,0.90
2019-03-13T19:51:04.429Z,0.80
2019-03-13T19:53:34.676Z,1.57
2019-03-13T19:56:04.969Z,0.83
2019-03-13T19:58:35.322Z,1.10
2019-03-13T20:01:05.723Z,1.03
2019-03-13T20:03:36.254Z,1.20
2019-03-13T20:06:06.588Z,1.00
2019-03-13T20:08:36.585Z,0.83
2019-03-13T20:11:06.529Z,1.20
2019-03-13T20:13:37.033Z,1.50
2019-03-13T20:16:07.563Z,1.00
2019-03-13T20:18:37.563Z,1.37
2019-03-13T20:21:07.810Z,1.37
2019-03-13T20:23:37.771Z,0.90
2019-03-13T20:26:07.667Z,1.20
2019-03-13T20:28:37.937Z,1.07
2019-03-13T20:31:08.498Z,1.10
2019-03-13T20:33:38.636Z,0.90
2019-03-13T20:36:08.886Z,0.93
2019-03-13T20:38:39.075Z,1.20
2019-03-13T20:41:09.451Z,1.10
2019-03-13T20:43:39.304Z,1.13
2019-03-13T20:46:10.401Z,1.30
2019-03-13T20:48:40.361Z,1.13
2019-03-13T20:51:10.220Z,1.30
2019-03-13T20:53:40.382Z,1.43
2019-03-13T20:56:10.889Z,1.17
2019-03-13T20:58:40.858Z,1.27
2019-03-13T21:01:10.757Z,1.40
2019-03-13T21:03:40.861Z,1.40
2019-03-13T21:06:10.755Z,1.73
2019-03-13T21:08:41.295Z,1.30
2019-03-13T21:11:11.907Z,1.87
2019-03-13T21:13:41.825Z,1.73
2019-03-13T21:16:12.683Z,2.30
2019-03-13T21:18:42.890Z,1.93
2019-03-13T21:21:13.128Z,1.80
2019-03-13T21:23:43.303Z,2.23
2019-03-13T21:26:13.247Z,2.00
2019-03-13T21:28:43.480Z,2.10
2019-03-13T21:31:13.325Z,2.17
2019-03-13T21:33:43.158Z,2.80
2019-03-13T21:36:13.554Z,1.87
2019-03-13T21:38:43.550Z,2.70
2019-03-13T21:41:13.888Z,3.00
2019-03-13T21:43:43.867Z,2.70
2019-03-13T21:46:13.883Z,2.60
2019-03-13T21:48:44.026Z,3.13
2019-03-13T21:51:14.180Z,2.00
2019-03-13T21:53:44.346Z,2.53
2019-03-13T21:56:14.217Z,2.80
2019-03-13T21:58:44.394Z,2.70
2019-03-13T22:01:19.736Z,2.60
2019-03-13T22:03:45.799Z,2.50
2019-03-13T22:06:28.032Z,2.73
2019-03-13T22:08:47.581Z,2.63
2019-03-13T22:11:17.457Z,2.43
2019-03-13T22:13:47.309Z,2.03
2019-03-13T22:16:17.181Z,2.50
2019-03-13T22:18:47.591Z,2.10
2019-03-13T22:21:18.050Z,2.90
2019-03-13T22:23:48.512Z,3.00
2019-03-13T22:26:18.353Z,2.50
2019-03-13T22:28:48.482Z,2.77
2019-03-13T22:31:18.411Z,2.63
2019-03-13T22:33:48.274Z,2.70
2019-03-13T22:36:18.233Z,2.80
2019-03-13T22:38:48.080Z,3.27
2019-03-13T22:41:18.563Z,2.93
2019-03-13T22:43:48.442Z,3.00
2019-03-13T22:46:18.412Z,2.37
2019-03-13T22:48:57.671Z,3.10
2019-03-13T22:51:20.569Z,2.77
2019-03-13T22:53:50.679Z,3.10
2019-03-13T22:56:20.508Z,2.50
2019-03-13T22:58:50.350Z,2.40
2019-03-13T23:01:20.912Z,2.57
2019-03-13T23:03:51.299Z,2.70
2019-03-13T23:06:21.650Z,3.30
2019-03-13T23:08:51.478Z,2.60
2019-03-13T23:11:21.500Z,2.43
2019-03-13T23:13:51.327Z,2.10
2019-03-13T23:16:23.788Z,3.23
2019-03-13T23:18:52.762Z,2.30
2019-03-13T23:21:22.582Z,2.50
2019-03-13T23:23:52.672Z,3.07
2019-03-13T23:26:22.595Z,3.07
2019-03-13T23:28:52.669Z,2.20
2019-03-13T23:31:22.507Z,2.87
2019-03-13T23:33:52.368Z,2.80
2019-03-13T23:36:22.199Z,3.20
2019-03-13T23:38:52.098Z,3.23
2019-03-13T23:41:21.913Z,2.47
2019-03-13T23:43:51.783Z,3.13
2019-03-13T23:46:21.675Z,2.23
2019-03-13T23:48:52.198Z,3.53
2019-03-13T23:51:22.651Z,3.33
2019-03-13T23:53:52.616Z,2.83
2019-03-13T23:56:22.963Z,3.50
2019-03-13T23:58:52.999Z,3.23
